Time;durP1;ratioP1;P1;durP2;ratioP2;P2;SDS_P1;SDS_P2;PMS_P1;PMS_P2;Temp;Humidity;BMP_temperature;BMP_pressure;BME280_temperature;BME280_humidity;BME280_pressure;Samples;Min_cycle;Max_cycle;Signal;HPM_P1;HPM_P2
2021/08/18 00:00:19;;;;;;;5.40;4.20;;;;;;;29.51;43.75;100646.19;144994;632;5002;-81
2021/08/18 00:02:45;;;;;;;6.45;4.40;;;;;;;29.45;44.24;100644.69;144994;588;5002;-79
2021/08/18 00:05:15;;;;;;;4.30;3.90;;;;;;;29.37;44.04;100643.34;144994;571;5002;-81
2021/08/18 00:07:43;;;;;;;5.10;4.05;;;;;;;29.39;44.06;100647.66;144994;579;5002;-80
2021/08/18 00:10:11;;;;;;;5.15;3.87;;;;;;;29.41;44.02;100647.56;144994;641;5002;-79
2021/08/18 00:12:38;;;;;;;5.53;3.80;;;;;;;29.42;44.01;100652.00;144994;576;5002;-79
2021/08/18 00:15:06;;;;;;;7.03;4.15;;;;;;;29.44;43.79;100652.78;144994;565;5002;-80
2021/08/18 00:17:34;;;;;;;4.62;4.20;;;;;;;29.47;43.44;100652.62;144994;611;5002;-80
2021/08/18 00:20:01;;;;;;;7.55;3.80;;;;;;;29.47;43.56;100652.62;144994;586;5002;-80
2021/08/18 00:22:27;;;;;;;5.07;3.92;;;;;;;29.47;43.25;100656.16;144994;565;5002;-80
2021/08/18 00:24:54;;;;;;;4.37;3.87;;;;;;;29.49;43.25;100653.41;144994;598;5002;-81
2021/08/18 00:27:20;;;;;;;5.72;3.83;;;;;;;29.49;43.49;100653.41;144994;588;5002;-80
2021/08/18 00:29:47;;;;;;;6.32;3.87;;;;;;;29.46;43.22;100661.56;144994;572;5002;-81
2021/08/18 00:32:13;;;;;;;5.53;4.37;;;;;;;29.46;43.42;100661.56;144994;632;5002;-80
2021/08/18 00:34:40;;;;;;;4.82;3.90;;;;;;;29.45;43.45;100657.19;144994;589;5002;-81
2021/08/18 00:37:07;;;;;;;4.85;4.45;;;;;;;29.34;42.54;100659.53;144994;581;5002;-81
2021/08/18 00:39:34;;;;;;;4.85;3.92;;;;;;;29.23;42.92;100655.56;144994;574;5002;-80
2021/08/18 00:42:00;;;;;;;5.43;4.32;;;;;;;29.24;43.79;100651.09;144994;572;5002;-80
2021/08/18 00:44:28;;;;;;;5.05;4.30;;;;;;;29.28;43.53;100660.69;144994;627;5002;-80
2021/08/18 00:46:58;;;;;;;6.60;4.25;;;;;;;29.28;43.23;100661.56;144994;652;5002;-79
2021/08/18 00:49:25;;;;;;;5.05;4.40;;;;;;;29.24;43.13;100656.44;144994;623;5002;-80
2021/08/18 00:51:53;;;;;;;4.70;4.07;;;;;;;29.24;43.35;100651.09;144994;600;5002;-80
2021/08/18 00:54:20;;;;;;;5.18;4.40;;;;;;;29.27;43.09;100659.84;144994;569;5002;-79
2021/08/18 00:56:47;;;;;;;4.80;4.15;;;;;;;29.28;42.90;100660.69;144994;563;5002;-80
2021/08/18 00:59:14;;;;;;;4.80;3.72;;;;;;;29.29;42.92;100657.09;144994;597;4567;-80
2021/08/18 01:01:41;;;;;;;4.90;4.00;;;;;;;29.29;42.44;100652.59;144994;582;4572;-80
2021/08/18 01:04:08;;;;;;;5.62;3.95;;;;;;;29.30;42.25;100651.66;144994;654;4571;-79
2021/08/18 01:06:40;;;;;;;5.65;4.18;;;;;;;29.29;42.25;100652.59;144992;610;6002;-81
2021/08/18 01:09:09;;;;;;;5.10;3.87;;;;;;;29.29;42.18;100651.75;144992;595;6002;-80
2021/08/18 01:11:37;;;;;;;5.57;3.70;;;;;;;29.30;42.11;100656.12;144992;653;6002;-79
2021/08/18 01:14:04;;;;;;;6.32;4.28;;;;;;;29.30;41.78;100658.81;144992;566;6002;-79
2021/08/18 01:16:35;;;;;;;4.35;3.95;;;;;;;29.30;41.83;100650.78;144992;642;6002;-79
2021/08/18 01:19:02;;;;;;;6.65;4.60;;;;;;;29.31;41.62;100657.87;144992;569;6002;-79
2021/08/18 01:21:29;;;;;;;5.03;4.28;;;;;;;29.30;41.67;100661.47;144992;718;6002;-80
2021/08/18 01:23:56;;;;;;;5.05;4.20;;;;;;;29.30;41.91;100657.00;144992;580;6002;-81
2021/08/18 01:26:23;;;;;;;4.75;4.20;;;;;;;29.30;41.95;100653.47;144992;596;6002;-80
2021/08/18 01:28:50;;;;;;;6.18;4.80;;;;;;;29.28;41.62;100650.00;144992;573;6002;-79
2021/08/18 01:31:18;;;;;;;7.40;4.57;;;;;;;29.24;41.92;100643.94;144992;705;6002;-77
2021/08/18 01:33:45;;;;;;;6.32;4.87;;;;;;;29.27;41.97;100648.25;144992;571;6002;-78
2021/08/18 01:36:12;;;;;;;5.72;4.85;;;;;;;29.28;41.82;100650.84;144992;564;6002;-80
2021/08/18 01:38:38;;;;;;;7.85;4.87;;;;;;;29.29;42.11;100647.25;144992;639;6002;-80
2021/08/18 01:41:05;;;;;;;5.90;5.28;;;;;;;29.27;41.81;100646.47;144992;576;6002;-81
2021/08/18 01:43:31;;;;;;;5.43;4.93;;;;;;;29.28;41.93;100647.31;144992;588;6002;-79
2021/08/18 01:45:58;;;;;;;5.20;4.70;;;;;;;29.26;41.89;100647.41;144992;589;6002;-80
2021/08/18 01:48:29;;;;;;;5.35;4.85;;;;;;;29.25;42.00;100644.81;144992;571;6002;-80
2021/08/18 01:50:57;;;;;;;5.80;4.50;;;;;;;29.24;42.22;100643.94;144992;713;6002;-80
2021/08/18 01:53:29;;;;;;;5.12;4.30;;;;;;;29.24;41.99;100643.06;144992;563;6002;-79
2021/08/18 01:56:06;;;;;;;5.93;4.80;;;;;;;29.22;41.98;100640.47;144992;601;6002;-80
2021/08/18 01:58:34;;;;;;;5.10;4.60;;;;;;;29.20;42.21;100638.81;144992;569;6002;-79
2021/08/18 02:01:03;;;;;;;4.85;4.35;;;;;;;29.17;42.05;100639.81;144992;583;6002;-80
2021/08/18 02:03:29;;;;;;;7.12;5.10;;;;;;;29.17;42.36;100644.28;144992;569;6002;-81
2021/08/18 02:05:55;;;;;;;7.37;5.55;;;;;;;29.15;42.20;100639.03;144992;583;6002;-80
2021/08/18 02:08:22;;;;;;;7.75;5.12;;;;;;;29.15;42.68;100647.03;144992;605;6002;-80
2021/08/18 02:10:48;;;;;;;7.85;5.20;;;;;;;29.15;42.93;100648.84;144992;577;6002;-80
2021/08/18 02:13:16;;;;;;;7.05;4.55;;;;;;;29.14;43.13;100655.97;144991;656;6002;-79
2021/08/18 02:15:43;;;;;;;6.40;4.68;;;;;;;29.14;43.31;100650.63;144992;566;6002;-79
2021/08/18 02:18:14;;;;;;;7.47;4.95;;;;;;;29.10;44.15;100641.91;144992;635;6002;-80
2021/08/18 02:20:42;;;;;;;8.70;4.72;;;;;;;29.09;43.49;100650.00;144991;564;6002;-81
2021/08/18 02:23:12;;;;;;;8.88;4.90;;;;;;;29.09;43.73;100645.53;144992;598;6002;-81
2021/08/18 02:25:39;;;;;;;7.10;4.37;;;;;;;29.09;43.55;100634.81;144992;646;6002;-80
2021/08/18 02:28:09;;;;;;;5.95;5.05;;;;;;;29.09;43.47;100644.66;144992;717;6002;-80
2021/08/18 02:30:36;;;;;;;5.50;4.75;;;;;;;29.08;43.61;100648.25;144992;565;6002;-79
2021/08/18 02:33:03;;;;;;;8.13;5.20;;;;;;;29.08;43.57;100653.59;144992;598;6002;-79
2021/08/18 02:35:30;;;;;;;7.43;4.78;;;;;;;29.06;43.19;100656.34;144992;645;6002;-80
2021/08/18 02:37:58;;;;;;;7.05;4.97;;;;;;;29.04;43.14;100658.25;144992;696;6002;-79
2021/08/18 02:40:26;;;;;;;7.32;4.78;;;;;;;29.03;43.07;100652.97;144992;583;6002;-80
2021/08/18 02:42:54;;;;;;;8.40;5.40;;;;;;;29.01;42.96;100653.03;144992;590;6002;-81
2021/08/18 02:45:22;;;;;;;6.00;4.78;;;;;;;29.01;42.85;100652.19;144992;614;6002;-80
2021/08/18 02:47:48;;;;;;;7.18;4.55;;;;;;;28.99;42.89;100662.09;144992;650;6002;-81
2021/08/18 02:50:17;;;;;;;6.45;4.70;;;;;;;28.98;42.85;100665.69;144992;614;6002;-80
2021/08/18 02:52:43;;;;;;;6.20;4.93;;;;;;;28.93;42.65;100661.44;144992;580;6002;-79
2021/08/18 02:55:10;;;;;;;8.10;5.12;;;;;;;28.94;42.79;100659.66;144992;572;6002;-80
2021/08/18 02:57:37;;;;;;;6.90;4.97;;;;;;;28.93;42.82;100660.56;144992;596;6002;-81
2021/08/18 03:00:05;;;;;;;7.18;4.87;;;;;;;28.91;42.63;100663.31;144992;581;6002;-80
2021/08/18 03:02:32;;;;;;;10.20;7.37;;;;;;;28.90;42.50;100669.59;144992;574;6002;-80
2021/08/18 03:04:58;;;;;;;7.70;4.85;;;;;;;28.89;42.63;100664.31;144992;564;6002;-80
2021/08/18 03:07:25;;;;;;;9.38;5.18;;;;;;;28.89;42.57;100659.88;144992;567;6002;-80
2021/08/18 03:09:51;;;;;;;7.22;5.15;;;;;;;28.89;42.70;100662.53;144992;572;6002;-80
2021/08/18 03:12:18;;;;;;;6.97;5.05;;;;;;;28.91;42.50;100667.81;144992;576;6002;-79
2021/08/18 03:14:45;;;;;;;7.72;4.80;;;;;;;28.90;42.45;100664.25;144992;658;6002;-79
2021/08/18 03:17:12;;;;;;;6.50;4.70;;;;;;;28.90;42.74;100668.72;144992;579;6002;-81
2021/08/18 03:19:39;;;;;;;6.03;4.53;;;;;;;28.89;42.50;100662.53;144992;686;6002;-79
2021/08/18 03:22:06;;;;;;;6.15;4.53;;;;;;;28.82;42.71;100658.41;144992;585;6002;-81
2021/08/18 03:24:32;;;;;;;5.82;4.78;;;;;;;28.82;42.71;100666.41;144992;591;6002;-80
2021/08/18 03:26:58;;;;;;;6.12;4.78;;;;;;;28.77;42.82;100663.09;144992;594;6002;-80
2021/08/18 03:29:25;;;;;;;6.12;4.45;;;;;;;28.74;42.79;100663.25;144992;578;6002;-80
2021/08/18 03:31:51;;;;;;;5.32;4.45;;;;;;;28.74;42.72;100666.78;144992;599;6002;-80
2021/08/18 03:34:18;;;;;;;6.32;4.35;;;;;;;28.74;42.62;100665.91;144991;656;6002;-79
2021/08/18 03:36:44;;;;;;;5.65;4.87;;;;;;;28.74;42.88;100661.44;144992;618;6002;-80
2021/08/18 03:39:11;;;;;;;5.07;4.50;;;;;;;28.69;42.95;100662.59;144992;694;6002;-79
2021/08/18 03:41:37;;;;;;;7.00;4.60;;;;;;;28.63;43.37;100653.06;144992;569;6002;-79
2021/08/18 03:44:04;;;;;;;8.90;4.78;;;;;;;28.62;42.90;100664.69;144992;590;6002;-79
2021/08/18 03:46:31;;;;;;;6.87;4.90;;;;;;;28.61;42.93;100664.78;144992;565;6002;-81
2021/08/18 03:49:00;;;;;;;5.45;4.90;;;;;;;28.52;43.13;100664.25;144992;701;6002;-80
2021/08/18 03:51:26;;;;;;;5.60;4.72;;;;;;;28.45;43.50;100662.78;144992;571;6002;-81
2021/08/18 03:53:54;;;;;;;6.45;5.05;;;;;;;28.35;43.81;100669.47;144992;606;6002;-80
2021/08/18 03:56:20;;;;;;;5.75;5.10;;;;;;;28.37;43.56;100670.25;144992;661;6002;-80
2021/08/18 03:58:47;;;;;;;7.90;5.30;;;;;;;28.42;43.53;100673.59;144992;591;6002;-80
2021/08/18 04:01:14;;;;;;;7.90;5.30;;;;;;;28.45;43.45;100670.78;144992;660;6002;-80
2021/08/18 04:03:40;;;;;;;9.20;6.30;;;;;;;28.48;43.75;100678.66;144992;707;6003;-82
2021/08/18 04:06:07;;;;;;;9.40;6.10;;;;;;;28.53;43.61;100670.44;144992;593;6002;-80
2021/08/18 04:08:34;;;;;;;6.75;5.90;;;;;;;28.55;43.39;100671.22;144992;569;6002;-80
2021/08/18 04:11:04;;;;;;;7.90;6.45;;;;;;;28.56;43.60;100668.47;144992;625;6003;-80
2021/08/18 04:13:31;;;;;;;6.72;6.00;;;;;;;28.58;43.45;100673.78;144992;665;6002;-80
2021/08/18 04:15:58;;;;;;;13.20;6.00;;;;;;;28.58;43.45;100673.78;144992;563;6002;-80
2021/08/18 04:18:24;;;;;;;6.75;6.05;;;;;;;28.59;43.58;100679.06;144992;587;6002;-80
2021/08/18 04:20:51;;;;;;;10.18;5.68;;;;;;;28.57;43.59;100688.03;144992;694;6002;-82
2021/08/18 04:23:17;;;;;;;5.78;4.90;;;;;;;28.58;43.57;100681.78;144992;623;6002;-81
2021/08/18 04:25:44;;;;;;;6.25;4.80;;;;;;;28.59;43.46;100681.72;144992;564;6002;-80
2021/08/18 04:28:10;;;;;;;6.18;5.12;;;;;;;28.62;43.38;100685.19;144992;593;6002;-80
2021/08/18 04:30:37;;;;;;;7.53;5.12;;;;;;;28.64;43.41;100684.19;144992;577;6002;-80
2021/08/18 04:33:04;;;;;;;7.28;4.80;;;;;;;28.68;43.67;100683.12;144992;600;6002;-80
2021/08/18 04:35:30;;;;;;;8.43;5.07;;;;;;;28.74;43.37;100687.28;144992;733;6002;-80
2021/08/18 04:37:57;;;;;;;9.55;4.95;;;;;;;28.79;43.30;100681.72;144992;612;6002;-81
2021/08/18 04:40:23;;;;;;;7.25;5.22;;;;;;;28.79;43.49;100684.41;144992;578;6002;-81
2021/08/18 04:42:51;;;;;;;4.85;4.37;;;;;;;28.83;43.50;100686.88;144992;606;6002;-80
2021/08/18 04:45:18;;;;;;;6.78;4.90;;;;;;;28.83;43.47;100676.19;144991;698;6002;-80
2021/08/18 04:47:45;;;;;;;9.02;4.85;;;;;;;28.85;43.32;100681.44;144992;737;6002;-80
2021/08/18 04:50:13;;;;;;;9.85;4.78;;;;;;;28.83;43.37;100678.84;144992;623;6002;-79
2021/08/18 04:52:40;;;;;;;7.97;4.95;;;;;;;28.84;43.49;100685.94;144992;581;6002;-80
2021/08/18 04:55:08;;;;;;;6.60;4.90;;;;;;;28.88;43.52;100681.31;144992;656;6002;-81
2021/08/18 04:57:34;;;;;;;6.87;5.20;;;;;;;28.92;43.89;100685.53;144992;569;6002;-80
2021/08/18 05:00:01;;;;;;;9.07;6.85;;;;;;;28.94;43.55;100684.53;144992;564;6002;-80
2021/08/18 05:02:27;;;;;;;8.98;8.05;;;;;;;28.98;43.87;100692.41;144992;622;6002;-80
2021/08/18 05:04:54;;;;;;;11.55;8.27;;;;;;;29.00;43.87;100691.41;144992;566;6002;-79
2021/08/18 05:07:20;;;;;;;14.75;10.30;;;;;;;29.05;43.69;100700.06;144992;685;6002;-78
2021/08/18 05:09:49;;;;;;;13.57;8.07;;;;;;;29.09;43.96;100701.63;144992;632;6002;-82
2021/08/18 05:12:15;;;;;;;13.70;6.75;;;;;;;29.15;44.02;100700.50;144992;733;6002;-80
2021/08/18 05:14:42;;;;;;;10.13;6.10;;;;;;;29.22;44.10;100696.59;144992;574;6002;-80
2021/08/18 05:17:08;;;;;;;10.52;5.53;;;;;;;29.28;44.02;100715.00;144992;708;6002;-80
2021/08/18 05:19:35;;;;;;;7.90;5.50;;;;;;;29.31;43.84;100716.69;144992;665;6002;-80
2021/08/18 05:22:01;;;;;;;8.70;5.25;;;;;;;29.33;44.13;100712.13;144992;576;6002;-79
2021/08/18 05:24:28;;;;;;;6.40;4.78;;;;;;;29.39;44.24;100713.62;144992;677;6002;-79
2021/08/18 05:26:54;;;;;;;6.95;5.20;;;;;;;29.44;44.01;100714.28;144992;576;6002;-79
2021/08/18 05:29:20;;;;;;;7.78;6.40;;;;;;;29.47;43.82;100712.31;144992;661;6002;-80
2021/08/18 05:31:47;;;;;;;24.25;7.07;;;;;;;29.49;43.72;100715.78;144992;577;6002;-80
2021/08/18 05:34:14;;;;;;;8.88;5.90;;;;;;;29.54;43.99;100712.00;144992;573;6002;-80
2021/08/18 05:36:40;;;;;;;8.95;5.68;;;;;;;29.58;43.79;100721.63;144992;569;6002;-81
2021/08/18 05:39:06;;;;;;;9.02;6.00;;;;;;;29.62;44.08;100721.37;144992;566;6002;-79
2021/08/18 05:41:33;;;;;;;9.60;6.05;;;;;;;29.66;43.78;100722.09;144992;580;6002;-81
2021/08/18 05:44:03;;;;;;;9.55;6.53;;;;;;;29.72;43.91;100713.78;144992;607;6002;-79
2021/08/18 05:46:29;;;;;;;7.40;5.20;;;;;;;29.78;44.25;100723.28;144992;577;6002;-80
2021/08/18 05:48:56;;;;;;;10.73;5.50;;;;;;;29.83;43.89;100721.28;144992;630;6002;-80
2021/08/18 05:51:22;;;;;;;11.63;6.78;;;;;;;29.89;44.29;100720.09;144992;574;6002;-79
2021/08/18 05:53:51;;;;;;;6.85;6.10;;;;;;;29.93;44.08;100722.53;144992;611;6002;-81
2021/08/18 05:56:19;;;;;;;12.82;5.78;;;;;;;29.98;44.07;100724.97;144992;610;6002;-80
2021/08/18 05:58:46;;;;;;;8.32;5.50;;;;;;;30.05;44.12;100725.53;144992;628;6002;-79
2021/08/18 06:01:13;;;;;;;8.23;5.32;;;;;;;30.12;44.61;100724.28;144992;569;6002;-80
2021/08/18 06:03:39;;;;;;;7.55;5.18;;;;;;;30.18;44.36;100722.13;144992;591;6002;-80
2021/08/18 06:06:06;;;;;;;8.02;5.47;;;;;;;30.27;44.34;100722.59;144992;593;6002;-80
2021/08/18 06:08:32;;;;;;;6.53;5.45;;;;;;;30.34;44.51;100716.84;144992;609;6002;-81
2021/08/18 06:10:59;;;;;;;6.70;5.20;;;;;;;30.44;44.48;100721.75;144992;594;6002;-80
2021/08/18 06:13:26;;;;;;;5.50;4.18;;;;;;;30.45;45.09;100720.78;144992;588;6002;-81
2021/08/18 06:15:52;;;;;;;7.20;4.40;;;;;;;30.47;45.42;100719.75;144992;589;6002;-80
2021/08/18 06:18:19;;;;;;;6.00;4.40;;;;;;;30.52;45.59;100720.38;144992;576;6017;-80
2021/08/18 06:20:48;;;;;;;8.05;5.03;;;;;;;30.48;46.08;100717.94;144992;605;6002;-81
2021/08/18 06:23:20;;;;;;;6.50;4.35;;;;;;;30.49;47.22;100720.53;144992;660;6002;-80
2021/08/18 06:25:46;;;;;;;6.80;4.25;;;;;;;30.32;48.55;100713.38;144992;589;6002;-81
2021/08/18 06:28:13;;;;;;;7.03;4.40;;;;;;;30.22;48.19;100717.47;144992;631;6002;-81
2021/08/18 06:30:39;;;;;;;5.75;4.85;;;;;;;30.07;49.84;100720.94;144992;588;6010;-80
2021/08/18 06:33:06;;;;;;;7.62;5.30;;;;;;;30.18;47.32;100721.28;144992;571;6002;-80
2021/08/18 06:35:33;;;;;;;12.65;5.90;;;;;;;30.23;46.73;100719.22;144992;583;6002;-80
2021/08/18 06:37:59;;;;;;;8.15;4.90;;;;;;;30.31;47.01;100722.34;144992;565;6002;-80
2021/08/18 06:40:25;;;;;;;6.57;4.47;;;;;;;30.43;47.22;100720.00;144992;629;6002;-79
2021/08/18 06:42:52;;;;;;;6.28;4.45;;;;;;;30.43;48.63;100728.87;144992;656;6002;-78
2021/08/18 06:45:21;;;;;;;7.62;4.72;;;;;;;30.34;48.11;100722.19;144992;575;6002;-78
2021/08/18 06:47:49;;;;;;;8.20;4.95;;;;;;;30.49;47.78;100722.34;144992;565;6002;-79
2021/08/18 06:50:15;;;;;;;8.18;4.87;;;;;;;30.39;49.55;100730.88;144992;585;6002;-81
2021/08/18 06:52:42;;;;;;;8.95;4.43;;;;;;;30.45;49.13;100736.84;144992;616;6002;-81
2021/08/18 06:55:10;;;;;;;4.65;4.25;;;;;;;30.35;49.70;100731.97;144992;633;6003;-81
2021/08/18 06:57:36;;;;;;;8.23;4.62;;;;;;;30.26;49.99;100731.56;144992;566;6002;-79
2021/08/18 07:00:05;;;;;;;8.00;4.50;;;;;;;30.26;49.70;100736.91;144992;582;6002;-80
2021/08/18 07:02:31;;;;;;;6.72;4.78;;;;;;;30.13;50.81;100732.22;144992;567;6003;-79
2021/08/18 07:04:58;;;;;;;6.47;4.37;;;;;;;30.13;50.48;100724.19;144992;615;6002;-81
2021/08/18 07:07:24;;;;;;;5.25;4.40;;;;;;;30.12;50.38;100729.63;144992;633;6002;-80
2021/08/18 07:09:50;;;;;;;5.62;4.57;;;;;;;30.23;49.73;100729.94;144992;578;6002;-82
2021/08/18 07:12:17;;;;;;;7.10;4.15;;;;;;;30.33;49.73;100724.94;144992;581;6002;-80
2021/08/18 07:14:43;;;;;;;6.62;4.62;;;;;;;30.25;50.67;100735.19;144992;577;6002;-80
2021/08/18 07:17:10;;;;;;;5.30;4.37;;;;;;;30.18;50.92;100732.00;144992;565;6002;-79
2021/08/18 07:19:36;;;;;;;5.75;4.15;;;;;;;30.28;50.47;100732.37;144992;599;6002;-81
2021/08/18 07:22:03;;;;;;;5.90;4.40;;;;;;;30.10;53.25;100736.84;144993;563;6002;-80
2021/08/18 07:24:31;;;;;;;7.75;4.37;;;;;;;30.29;51.41;100739.44;144993;578;6002;-79
2021/08/18 07:26:58;;;;;;;6.75;4.72;;;;;;;30.18;51.74;100734.66;144993;578;6002;-81
2021/08/18 07:29:25;;;;;;;5.07;4.53;;;;;;;30.13;51.39;100737.56;144993;571;6002;-77
2021/08/18 07:31:54;;;;;;;5.57;4.28;;;;;;;30.13;53.20;100744.72;144993;606;6002;-79
2021/08/18 07:34:21;;;;;;;4.80;4.40;;;;;;;30.29;52.10;100740.31;144993;564;6002;-79
2021/08/18 07:36:47;;;;;;;4.95;4.10;;;;;;;30.24;51.86;100742.34;144993;626;6002;-81
2021/08/18 07:39:14;;;;;;;7.75;4.45;;;;;;;30.38;50.88;100731.84;144993;585;6002;-81
2021/08/18 07:41:40;;;;;;;6.37;3.97;;;;;;;30.46;50.91;100736.75;144993;578;6002;-80
2021/08/18 07:44:07;;;;;;;4.62;3.95;;;;;;;30.61;50.41;100735.09;144993;631;6002;-80
2021/08/18 07:46:33;;;;;;;4.93;4.00;;;;;;;30.67;50.06;100734.75;144993;578;6002;-80
2021/08/18 07:49:01;;;;;;;4.32;3.92;;;;;;;30.79;49.58;100730.53;144993;570;6002;-79
2021/08/18 07:51:27;;;;;;;7.55;4.37;;;;;;;30.87;48.85;100727.44;144992;581;6002;-79
2021/08/18 07:53:54;;;;;;;5.68;4.15;;;;;;;30.95;48.58;100730.56;144992;600;6002;-80
2021/08/18 07:56:20;;;;;;;5.55;4.50;;;;;;;31.08;48.75;100728.09;144992;613;6002;-80
2021/08/18 07:58:47;;;;;;;5.65;4.50;;;;;;;31.17;47.60;100732.06;144992;589;6014;-80
2021/08/18 08:01:13;;;;;;;4.87;3.95;;;;;;;31.25;48.10;100724.47;144992;566;6002;-80
2021/08/18 08:03:40;;;;;;;4.50;4.10;;;;;;;31.37;47.45;100723.75;144992;637;6002;-80
2021/08/18 08:06:06;;;;;;;7.35;4.43;;;;;;;31.39;48.47;100721.84;144993;563;6002;-80
2021/08/18 08:08:33;;;;;;;5.32;4.10;;;;;;;31.39;47.04;100721.84;144993;650;6002;-81
2021/08/18 08:11:00;;;;;;;6.37;4.45;;;;;;;31.36;47.70;100729.22;144992;575;6002;-79
2021/08/18 08:13:26;;;;;;;4.93;4.12;;;;;;;31.43;47.10;100718.00;144993;693;6002;-80
2021/08/18 08:15:52;;;;;;;6.03;4.72;;;;;;;31.50;47.53;100728.41;144993;590;6002;-80
2021/08/18 08:18:19;;;;;;;4.95;3.80;;;;;;;31.46;48.64;100725.88;144993;612;6002;-80
2021/08/18 08:20:45;;;;;;;6.97;4.40;;;;;;;31.39;49.28;100726.34;144993;570;6002;-80
2021/08/18 08:23:12;;;;;;;5.72;4.20;;;;;;;31.57;47.82;100719.94;144993;644;6002;-81
2021/08/18 08:25:38;;;;;;;5.15;4.18;;;;;;;31.61;48.17;100723.28;144993;570;6002;-80
2021/08/18 08:28:05;;;;;;;5.97;4.37;;;;;;;31.69;47.89;100720.16;144993;586;6002;-80
2021/08/18 08:30:31;;;;;;;4.82;3.78;;;;;;;31.59;48.62;100725.22;144993;670;6002;-80
2021/08/18 08:32:58;;;;;;;6.28;4.90;;;;;;;31.63;49.09;100713.38;144993;693;6002;-80
2021/08/18 08:35:24;;;;;;;9.48;4.80;;;;;;;31.66;48.88;100713.19;144993;703;6002;-80
2021/08/18 08:37:51;;;;;;;5.62;4.30;;;;;;;31.65;48.55;100712.31;144993;573;6002;-80
2021/08/18 08:40:17;;;;;;;6.28;4.00;;;;;;;31.58;49.21;100716.31;144993;569;6002;-79
2021/08/18 08:42:44;;;;;;;5.50;4.20;;;;;;;31.77;48.98;100717.88;144993;591;6002;-81
2021/08/18 08:45:12;;;;;;;5.78;4.20;;;;;;;31.77;48.49;100717.88;144993;565;6002;-81
2021/08/18 08:47:39;;;;;;;6.37;3.92;;;;;;;31.89;48.67;100714.47;144993;727;6002;-80
2021/08/18 08:50:07;;;;;;;4.97;3.80;;;;;;;32.09;47.54;100716.00;144993;566;6002;-80
2021/08/18 08:52:34;;;;;;;7.37;4.20;;;;;;;32.10;47.97;100716.88;144993;667;6002;-80
2021/08/18 08:55:01;;;;;;;6.60;4.68;;;;;;;32.12;47.68;100709.56;144993;724;6002;-80
2021/08/18 08:57:27;;;;;;;5.60;3.90;;;;;;;32.07;48.38;100709.84;144993;618;6002;-80
2021/08/18 08:59:54;;;;;;;4.93;4.07;;;;;;;32.09;48.16;100705.28;144994;628;5002;-80
2021/08/18 09:02:21;;;;;;;6.32;4.50;;;;;;;32.19;47.69;100706.44;144994;577;5002;-80
2021/08/18 09:04:49;;;;;;;5.53;4.30;;;;;;;32.45;47.23;100712.00;144994;585;5002;-79
2021/08/18 09:07:21;;;;;;;5.65;4.07;;;;;;;32.42;47.17;100705.97;144994;686;5002;-80
2021/08/18 09:09:55;;;;;;;5.12;3.97;;;;;;;32.20;47.84;100718.06;144994;595;5002;-80
2021/08/18 09:12:27;;;;;;;;;;;;;;;32.17;47.88;100702.97;144998;913;5002;-82
2021/08/18 09:14:54;;;;;;;5.87;4.25;;;;;;;32.14;48.25;100697.78;144998;569;5002;-81
2021/08/18 09:17:32;;;;;;;5.32;4.55;;;;;;;31.98;47.90;100703.19;144994;564;5002;-80
2021/08/18 09:20:11;;;;;;;5.10;4.05;;;;;;;31.99;48.46;100698.69;144994;610;5002;-81
2021/08/18 09:22:52;;;;;;;6.40;3.97;;;;;;;32.03;48.14;100699.38;144994;620;5002;-80
2021/08/18 09:25:27;;;;;;;5.55;4.82;;;;;;;32.13;48.21;100705.94;144994;687;5002;-80
2021/08/18 09:28:16;;;;;;;7.10;4.68;;;;;;;32.17;48.60;100699.44;144994;591;5002;-79
2021/08/18 09:30:45;;;;;;;5.85;4.72;;;;;;;32.27;48.06;100689.00;144994;603;5002;-80
2021/08/18 09:33:17;;;;;;;7.37;4.93;;;;;;;32.36;49.11;100697.34;144994;572;5002;-81
2021/08/18 09:35:53;;;;;;;7.10;4.50;;;;;;;32.30;48.62;100689.66;144994;663;5002;-81
2021/08/18 09:38:20;;;;;;;6.20;4.07;;;;;;;32.16;49.60;100695.88;144994;613;5002;-81
2021/08/18 09:40:51;;;;;;;6.62;4.47;;;;;;;32.31;49.07;100695.88;144994;564;5002;-81
2021/08/18 09:43:25;;;;;;;7.15;4.18;;;;;;;32.27;49.58;100699.72;144994;675;5002;-80
2021/08/18 09:46:03;;;;;;;4.50;3.75;;;;;;;32.25;49.19;100693.59;144994;605;5002;-81
2021/08/18 09:48:33;;;;;;;6.43;3.87;;;;;;;32.28;49.22;100693.38;144994;577;5002;-81
2021/08/18 09:51:10;;;;;;;4.20;3.80;;;;;;;32.15;49.61;100691.47;144994;627;5002;-81
2021/08/18 09:53:41;;;;;;;6.32;3.72;;;;;;;31.90;50.65;100692.06;144994;597;5002;-80
2021/08/18 09:56:17;;;;;;;5.00;3.92;;;;;;;31.80;50.69;100685.50;144993;600;5002;-82
2021/08/18 09:58:57;;;;;;;4.65;3.90;;;;;;;32.04;50.04;100693.94;144994;626;5004;-83
2021/08/18 10:01:24;;;;;;;8.07;3.72;;;;;;;32.23;49.63;100679.38;144994;567;5005;-81
2021/08/18 10:03:54;;;;;;;6.85;3.75;;;;;;;32.24;49.05;100687.34;144994;691;5004;-80
2021/08/18 10:06:22;;;;;;;5.53;3.80;;;;;;;31.89;50.94;100687.66;144994;603;5004;-81
2021/08/18 10:08:52;;;;;;;4.28;3.58;;;;;;;32.10;49.61;100680.16;144994;692;5005;-80
2021/08/18 10:11:20;;;;;;;9.02;4.30;;;;;;;32.17;49.03;100678.81;144994;620;5004;-81
2021/08/18 10:13:47;;;;;;;4.18;3.78;;;;;;;32.19;48.94;100678.72;144994;619;5004;-79
2021/08/18 10:16:16;;;;;;;6.00;4.03;;;;;;;32.08;50.50;100682.06;144994;573;5005;-80
2021/08/18 10:18:47;;;;;;;6.53;3.85;;;;;;;32.25;49.10;100669.44;144994;627;5004;-80
2021/08/18 10:21:34;;;;;;;5.35;3.78;;;;;;;32.31;49.73;100683.34;144994;575;5004;-81
2021/08/18 10:24:05;;;;;;;4.10;3.62;;;;;;;32.32;50.31;100671.63;144994;650;5003;-81
2021/08/18 10:26:49;;;;;;;4.03;3.62;;;;;;;32.34;49.36;100674.22;144994;569;5002;-80
2021/08/18 10:29:39;;;;;;;4.00;3.62;;;;;;;32.36;49.31;100666.94;144994;577;5004;-80
2021/08/18 10:32:11;;;;;;;5.70;5.00;;;;;;;32.25;50.79;100664.91;144994;609;5002;-80
2021/08/18 10:34:51;;;;;;;7.10;4.18;;;;;;;32.35;49.80;100663.38;144994;587;5002;-80
2021/08/18 10:37:27;;;;;;;5.90;3.60;;;;;;;32.47;49.53;100652.81;144994;600;5002;-79
2021/08/18 10:39:59;;;;;;;5.62;3.78;;;;;;;32.43;49.40;100662.88;144994;590;5002;-79
2021/08/18 10:42:37;;;;;;;4.82;3.78;;;;;;;32.44;49.24;100656.56;144994;563;5002;-81
2021/08/18 10:45:24;;;;;;;5.10;4.35;;;;;;;32.42;51.13;100647.75;144994;571;5002;-81
2021/08/18 10:47:51;;;;;;;6.75;3.92;;;;;;;32.54;50.05;100640.72;144994;601;5004;-80
2021/08/18 10:50:41;;;;;;;5.37;3.42;;;;;;;32.49;50.68;100641.00;144994;587;5004;-80
2021/08/18 10:53:29;;;;;;;5.25;4.28;;;;;;;32.58;49.61;100641.38;144994;582;5002;-80
2021/08/18 10:55:56;;;;;;;5.07;3.90;;;;;;;32.62;49.77;100645.62;144994;620;5004;-79
2021/08/18 10:58:30;;;;;;;5.62;4.03;;;;;;;32.67;49.72;100628.25;144994;599;5004;-80
2021/08/18 11:00:57;;;;;;;4.30;3.70;;;;;;;32.76;49.33;100629.50;144994;580;5004;-78
2021/08/18 11:03:27;;;;;;;3.95;3.58;;;;;;;32.81;48.62;100630.06;144994;587;5004;-81
2021/08/18 11:05:54;;;;;;;5.78;3.80;;;;;;;32.86;48.60;100630.59;144994;588;5004;-81
2021/08/18 11:08:40;;;;;;;4.90;4.30;;;;;;;32.88;49.08;100633.19;144994;594;5005;-81
2021/08/18 11:11:12;;;;;;;4.90;3.62;;;;;;;33.03;48.50;100625.97;144994;578;5002;-79
2021/08/18 11:13:57;;;;;;;4.60;3.50;;;;;;;33.04;47.82;100619.59;144994;598;5002;-80
2021/08/18 11:16:33;;;;;;;4.62;3.97;;;;;;;32.90;48.08;100626.75;144994;572;5004;-80
2021/08/18 11:19:11;;;;;;;4.87;4.03;;;;;;;32.84;48.58;100615.56;144994;593;5004;-81
2021/08/18 11:21:44;;;;;;;3.65;3.35;;;;;;;33.06;47.26;100617.69;144994;701;5004;-79
2021/08/18 11:24:16;;;;;;;4.45;3.58;;;;;;;33.07;46.33;100611.34;144994;575;5004;-80
2021/08/18 11:26:45;;;;;;;4.87;3.65;;;;;;;33.01;45.73;100609.94;144994;583;5004;-81
2021/08/18 11:29:19;;;;;;;5.97;3.55;;;;;;;33.04;44.96;100617.78;144993;577;5004;-81
2021/08/18 11:31:49;;;;;;;4.82;3.47;;;;;;;32.89;45.87;100610.75;144994;604;5002;-82
2021/08/18 11:34:31;;;;;;;4.57;3.90;;;;;;;32.96;45.18;100606.66;144994;606;5002;-79
2021/08/18 11:37:08;;;;;;;5.05;3.60;;;;;;;32.96;44.91;100603.13;144994;660;5002;-79
2021/08/18 11:39:40;;;;;;;5.40;3.90;;;;;;;32.85;44.44;100603.81;144994;637;5002;-81